Terminal Aerodrome Forecast
Issued by NWS

Home | Current Version | Previous Version | Graphics & Text | Print | Product List | Glossary On
Versions: 1 2 3 4 5 6 7 8 9 10 11 12 13 14 15 16 17 18
807
FTUS43 KICT 270520
TAFSLN
TAF
KSLN 270520Z 2706/2806 02007KT P6SM VCSH SCT005 OVC008
     FM270900 36007KT 5SM BR SCT003 OVC005
     FM271400 35008KT 6SM BR BKN008
     FM271600 36008KT P6SM BKN015
     FM272000 01006KT P6SM SCT025=

USA.gov is the U.S. government's official web portal to all federal, state and local government web resources and services.